Time;durP1;ratioP1;P1;durP2;ratioP2;P2;SDS_P1;SDS_P2;PMS_P1;PMS_P2;Temp;Humidity;BMP_temperature;BMP_pressure;BME280_temperature;BME280_humidity;BME280_pressure;Samples;Min_cycle;Max_cycle;Signal;HPM_P1;HPM_P2
2022/12/22 03:29:05;;;;;;;;;;;6.90;99.90;;;5.79;100.00;95267.06;10565825;28;5009;-74
2022/12/22 03:34:07;;;;;;;;;;;6.90;99.90;;;5.85;100.00;95260.72;10578905;27;2872;-75
2022/12/22 03:39:10;;;;;;;;;;;7.00;99.90;;;5.96;100.00;95272.28;10560131;27;2955;-74
2022/12/22 03:49:33;;;;;;;;;;;7.00;99.90;;;6.02;100.00;95267.78;10565176;28;2915;-74
2022/12/22 03:54:36;;;;;;;;;;;7.10;99.90;;;6.04;100.00;95262.97;10559697;27;2812;-75
2022/12/22 03:59:39;;;;;;;;;;;7.10;99.90;;;6.03;100.00;95272.03;10573234;27;2505;-75
2022/12/22 04:04:41;;;;;;;;;;;7.10;99.90;;;6.08;100.00;95272.09;10567748;27;2891;-73
2022/12/22 04:12:53;;;;;;;;;;;7.10;99.90;;;6.11;100.00;95271.59;10572068;27;3044;-74
2022/12/22 04:15:08;;;;;;;;;;;7.10;99.90;;;6.06;100.00;95260.88;10566903;27;3052;-73
2022/12/22 04:20:11;;;;;;;;;;;7.10;99.90;;;6.03;100.00;95253.38;10544108;27;3288;-73
2022/12/22 04:25:14;;;;;;;;;;;7.10;99.90;;;6.10;100.00;95253.94;10570754;28;2482;-75
2022/12/22 04:30:17;;;;;;;;;;;7.10;99.90;;;6.02;100.00;95246.44;10556728;28;4978;-76
2022/12/22 04:35:21;;;;;;;;;;;7.10;99.90;;;6.00;100.00;95246.69;10562629;28;2508;-74
2022/12/22 04:40:24;;;;;;;;;;;7.10;99.90;;;5.99;100.00;95250.44;10567152;28;2411;-74
2022/12/22 04:45:36;;;;;;;;;;;7.10;99.90;;;5.95;100.00;95255.47;10569449;28;2466;-72
2022/12/22 04:50:39;;;;;;;;;;;7.10;99.90;;;6.02;100.00;95254.44;10563179;28;2930;-73
2022/12/22 04:55:42;;;;;;;;;;;7.10;99.90;;;6.06;100.00;95251.00;10557548;28;3255;-74
2022/12/22 05:00:44;;;;;;;;;;;7.10;99.90;;;6.19;100.00;95244.41;10568818;28;2785;-74
2022/12/22 05:05:47;;;;;;;;;;;7.20;99.90;;;6.25;100.00;95234.56;10560599;28;2539;-77
2022/12/22 05:10:50;;;;;;;;;;;7.30;99.90;;;6.36;100.00;95234.38;10554226;28;2915;-74
2022/12/22 05:15:53;;;;;;;;;;;7.30;99.90;;;6.45;100.00;95232.78;10562224;28;2943;-72
2022/12/22 05:20:56;;;;;;;;;;;7.50;99.90;;;6.49;100.00;95223.19;10557598;28;2885;-73
2022/12/22 05:25:58;;;;;;;;;;;7.60;99.90;;;6.36;100.00;95215.69;10565825;28;3040;-74
2022/12/22 05:31:02;;;;;;;;;;;7.60;99.90;;;6.31;100.00;95207.63;10568282;28;5004;-73
2022/12/22 05:36:04;;;;;;;;;;;7.50;99.90;;;6.06;100.00;95210.97;10570559;28;2482;-74
2022/12/22 05:41:07;;;;;;;;;;;7.40;99.90;;;5.80;100.00;95218.00;10580783;27;2866;-73
2022/12/22 05:46:10;;;;;;;;;;;7.10;99.90;;;5.63;100.00;95202.13;10577078;27;2907;-75
2022/12/22 05:51:13;;;;;;;;;;;7.00;99.90;;;5.57;100.00;95221.03;10574234;27;2411;-76
2022/12/22 05:56:15;;;;;;;;;;;6.90;99.90;;;5.53;100.00;95207.38;10578711;27;2423;-72
2022/12/22 06:01:19;;;;;;;;;;;6.80;99.90;;;5.48;100.00;95199.38;10573456;27;2823;-75
2022/12/22 06:06:22;;;;;;;;;;;6.80;99.90;;;5.38;100.00;95208.09;10572256;27;2927;-73
2022/12/22 06:11:24;;;;;;;;;;;6.60;99.90;;;5.41;100.00;95196.13;10568816;27;2942;-76
2022/12/22 06:16:27;;;;;;;;;;;6.60;99.90;;;5.34;100.00;95207.00;10554605;27;2879;-75
2022/12/22 06:21:30;;;;;;;;;;;6.60;99.90;;;5.41;100.00;95202.25;10569358;27;2910;-73
2022/12/22 06:26:37;;;;;;;;;;;6.60;99.90;;;5.58;100.00;95191.44;10571826;27;5019;-77
2022/12/22 06:31:40;;;;;;;;;;;6.70;99.90;;;5.80;100.00;95183.31;10569335;27;2967;-74
2022/12/22 06:36:43;;;;;;;;;;;6.80;99.90;;;5.96;100.00;95195.72;10575828;27;2969;-74
2022/12/22 06:47:09;;;;;;;;;;;7.10;99.90;;;6.42;100.00;95197.78;10547175;27;2906;-74
2022/12/22 06:52:13;;;;;;;;;;;7.30;99.90;;;6.65;100.00;95202.69;10559711;27;2888;-78
2022/12/22 06:57:15;;;;;;;;;;;7.60;99.90;;;6.78;100.00;95194.16;10572771;27;2392;-76
2022/12/22 07:02:18;;;;;;;;;;;7.80;99.90;;;6.82;100.00;95199.81;10567039;28;2519;-76
2022/12/22 07:07:21;;;;;;;;;;;7.90;99.90;;;6.89;100.00;95200.34;10559715;27;3003;-73
2022/12/22 07:12:24;;;;;;;;;;;7.90;99.90;;;7.04;100.00;95191.56;10568548;27;2872;-75
2022/12/22 07:17:26;;;;;;;;;;;8.00;99.90;;;7.23;100.00;95162.44;10565455;27;2887;-72
2022/12/22 07:22:29;;;;;;;;;;;8.20;99.90;;;7.44;100.00;95168.56;10569628;27;2470;-72
2022/12/22 07:27:32;;;;;;;;;;;8.50;99.90;;;7.50;100.00;95162.94;10569627;27;2474;-77
2022/12/22 07:32:35;;;;;;;;;;;8.60;99.90;;;7.60;100.00;95159.47;10579009;27;2198;-76
2022/12/22 07:37:38;;;;;;;;;;;8.70;99.90;;;7.57;100.00;95162.69;10577518;28;3066;-77
2022/12/22 07:42:44;;;;;;;;;;;8.70;99.90;;;7.50;100.00;95157.59;10582699;27;2482;-77
2022/12/22 07:47:47;;;;;;;;;;;8.70;99.90;;;7.44;100.00;95169.38;10573750;27;2937;-78
2022/12/22 07:52:49;;;;;;;;;;;8.70;99.90;;;7.48;100.00;95170.44;10578286;27;2942;-78
2022/12/22 07:57:52;;;;;;;;;;;8.70;99.90;;;7.48;100.00;95175.81;10582978;27;2956;-78
2022/12/22 08:02:55;;;;;;;;;;;8.70;99.90;;;7.34;100.00;95174.75;10562651;28;2397;-78
2022/12/22 08:07:58;;;;;;;;;;;8.60;99.90;;;7.34;100.00;95173.94;10582186;27;2892;-78
2022/12/22 08:13:01;;;;;;;;;;;8.50;99.90;;;7.28;100.00;95176.59;10572554;28;2403;-76
2022/12/22 08:18:03;;;;;;;;;;;8.50;99.90;;;7.48;100.00;95175.00;10571301;27;2890;-78
2022/12/22 08:23:06;;;;;;;;;;;8.50;99.90;;;7.57;100.00;95162.69;10579419;28;2926;-78
2022/12/22 08:28:09;;;;;;;;;;;8.70;99.90;;;7.58;100.00;95181.16;10572662;28;5025;-76
2022/12/22 08:33:12;;;;;;;;;;;8.70;99.90;;;7.65;100.00;95175.53;10569450;28;2261;-78
2022/12/22 08:38:15;;;;;;;;;;;8.80;99.90;;;7.76;100.00;95169.09;10572513;28;2517;-77
2022/12/22 08:43:17;;;;;;;;;;;8.80;99.90;;;7.99;100.00;95170.38;10581269;28;2884;-78
2022/12/22 08:48:20;;;;;;;;;;;9.00;99.90;;;8.44;100.00;95181.25;10573502;28;3183;-76
2022/12/22 08:53:23;;;;;;;;;;;9.30;99.90;;;8.69;100.00;95183.00;10568055;28;1815;-78
2022/12/22 08:58:45;;;;;;;;;;;9.50;99.90;;;8.74;100.00;95165.03;10579557;28;2910;-77
2022/12/22 09:03:48;;;;;;;;;;;9.70;99.90;;;8.89;100.00;95177.53;10570056;28;2853;-78
2022/12/22 09:08:51;;;;;;;;;;;9.80;99.90;;;8.87;100.00;95166.28;10575042;28;2863;-79
2022/12/22 09:13:54;;;;;;;;;;;9.90;99.90;;;9.00;100.00;95162.19;10589179;27;2895;-76
2022/12/22 09:18:56;;;;;;;;;;;10.00;99.90;;;9.02;100.00;95176.91;10579547;27;2371;-78
2022/12/22 09:24:01;;;;;;;;;;;10.10;99.90;;;9.11;100.00;95175.25;10586725;27;3268;-79
2022/12/22 09:29:03;;;;;;;;;;;10.10;99.90;;;9.09;100.00;95176.59;10562697;27;4831;-79
2022/12/22 09:34:06;;;;;;;;;;;10.20;99.90;;;9.05;100.00;95162.97;10587213;27;3005;-77
2022/12/22 09:39:14;;;;;;;;;;;10.10;99.90;;;9.22;100.00;95173.28;10582705;27;2364;-79
2022/12/22 09:44:18;;;;;;;;;;;10.10;99.90;;;9.32;100.00;95188.50;10581225;27;2852;-77
2022/12/22 09:49:21;;;;;;;;;;;10.40;99.90;;;9.57;100.00;95177.59;10581167;27;2749;-79
2022/12/22 09:54:24;;;;;;;;;;;10.40;99.90;;;9.64;100.00;95161.97;10574130;27;2557;-77
2022/12/22 09:59:27;;;;;;;;;;;10.70;99.90;;;10.05;100.00;95142.75;10560568;27;2933;-77
2022/12/22 10:04:30;;;;;;;;;;;11.30;99.90;;;10.25;100.00;95136.41;10578981;27;2890;-78
2022/12/22 10:09:32;;;;;;;;;;;11.10;99.90;;;9.99;100.00;95131.28;10579632;27;2911;-75
2022/12/22 10:14:54;;;;;;;;;;;11.10;99.90;;;10.13;100.00;95134.09;10575614;27;2873;-76
2022/12/22 10:19:57;;;;;;;;;;;11.10;99.90;;;10.23;100.00;95128.63;10575624;27;2907;-76
2022/12/22 10:25:01;;;;;;;;;;;;;;;10.45;100.00;95121.91;10581207;27;2891;-76
2022/12/22 10:30:04;;;;;;;;;;;11.30;99.90;;;10.45;100.00;95132.66;10581315;27;4783;-76
2022/12/22 10:35:07;;;;;;;;;;;11.40;99.90;;;10.32;100.00;95120.75;10578182;28;2467;-76
2022/12/22 10:40:09;;;;;;;;;;;11.40;99.90;;;10.44;100.00;95109.59;10580689;27;2923;-77
2022/12/22 10:45:12;;;;;;;;;;;11.40;99.90;;;10.43;100.00;95097.22;10580069;27;2420;-77
2022/12/22 10:50:15;;;;;;;;;;;11.40;99.90;;;10.55;100.00;95100.28;10581024;27;2916;-76
2022/12/22 10:55:18;;;;;;;;;;;11.50;99.90;;;10.58;100.00;95112.34;10580432;27;2907;-78
2022/12/22 11:00:20;;;;;;;;;;;11.60;99.90;;;10.66;100.00;95117.88;10578173;27;2850;-76
2022/12/22 11:05:23;;;;;;;;;;;11.60;99.90;;;10.57;100.00;95114.25;10556411;27;2415;-75
2022/12/22 11:10:26;;;;;;;;;;;11.60;99.90;;;10.69;100.00;95125.38;10572417;28;2893;-75
2022/12/22 11:15:29;;;;;;;;;;;11.70;99.90;;;10.64;100.00;95113.88;10571413;27;2482;-75
2022/12/22 11:20:33;;;;;;;;;;;11.70;99.90;;;9.90;100.00;95124.94;10565168;27;2951;-76
2022/12/22 11:25:37;;;;;;;;;;;11.30;99.90;;;9.30;100.00;95135.16;10573479;27;2835;-75
2022/12/22 11:30:41;;;;;;;;;;;10.70;99.90;;;8.91;100.00;95121.78;10572678;28;2776;-74
2022/12/22 11:35:44;;;;;;;;;;;10.30;99.90;;;8.65;100.00;95146.06;10575386;27;2854;-75
2022/12/22 11:40:47;;;;;;;;;;;9.90;99.90;;;8.46;100.00;95123.66;10571176;27;2839;-75
2022/12/22 11:45:50;;;;;;;;;;;9.70;99.90;;;8.36;100.00;95119.13;10571949;27;2415;-75
2022/12/22 11:50:53;;;;;;;;;;;9.50;99.90;;;8.29;100.00;95125.84;10576995;27;2851;-77
2022/12/22 11:56:15;;;;;;;;;;;9.60;99.90;;;8.20;100.00;95106.06;10578832;27;2926;-77
2022/12/22 12:01:18;;;;;;;;;;;9.40;99.90;;;8.25;100.00;95089.97;10555649;28;2808;-75
2022/12/22 12:06:27;;;;;;;;;;;9.40;99.90;;;8.42;100.00;95071.72;10579582;27;2896;-76
2022/12/22 12:11:30;;;;;;;;;;;9.50;99.90;;;8.64;100.00;95066.72;10581132;28;2884;-74
2022/12/22 12:16:34;;;;;;;;;;;8.50;99.90;;;8.97;100.00;95074.28;10572302;27;2870;-77
2022/12/22 12:21:38;;;;;;;;;;;9.90;99.90;;;9.04;100.00;95072.09;10568593;28;2817;-74
2022/12/22 12:26:40;;;;;;;;;;;10.10;99.90;;;8.86;100.00;95073.56;10579898;28;5025;-74
2022/12/22 12:31:43;;;;;;;;;;;10.00;99.90;;;8.82;100.00;95064.47;10578699;28;2888;-75
2022/12/22 12:36:46;;;;;;;;;;;;;;;9.09;100.00;95059.44;10572100;28;2836;-75
2022/12/22 12:41:50;;;;;;;;;;;;;;;9.32;100.00;95055.22;10565906;28;2474;-77
2022/12/22 12:46:53;;;;;;;;;;;;;;;9.36;100.00;95063.50;10567455;28;2434;-76
2022/12/22 12:51:55;;;;;;;;;;;10.30;99.90;;;9.41;100.00;95053.50;10595267;27;2906;-76
2022/12/22 12:56:58;;;;;;;;;;;10.40;99.90;;;9.55;100.00;95056.34;10582286;27;2459;-75
2022/12/22 13:02:01;;;;;;;;;;;10.50;99.90;;;9.65;100.00;95058.91;10576936;28;2948;-77
2022/12/22 13:07:04;;;;;;;;;;;10.70;99.90;;;9.74;100.00;95057.19;10597791;27;3030;-77
2022/12/22 13:12:07;;;;;;;;;;;10.70;99.90;;;9.84;100.00;95055.47;10590023;28;2867;-76
2022/12/22 13:17:17;;;;;;;;;;;10.80;99.90;;;9.80;100.00;95057.94;10583326;27;2895;-76
2022/12/22 13:22:20;;;;;;;;;;;10.90;99.90;;;9.74;100.00;95067.94;10582926;27;2589;-76
2022/12/22 13:27:26;;;;;;;;;;;10.90;99.90;;;9.70;100.00;95058.84;10575963;28;4901;-75
2022/12/22 13:32:31;;;;;;;;;;;10.60;99.90;;;9.77;100.00;95081.88;10581040;27;3256;-76
2022/12/22 13:37:33;;;;;;;;;;;10.80;99.90;;;9.78;100.00;95075.41;10579027;27;2411;-78
2022/12/22 13:42:36;;;;;;;;;;;10.80;99.90;;;9.75;100.00;95074.09;10577684;27;2879;-78
2022/12/22 13:47:39;;;;;;;;;;;10.80;99.90;;;9.71;100.00;95094.53;10581044;27;2926;-78
2022/12/22 13:52:42;;;;;;;;;;;10.80;99.90;;;9.67;100.00;95086.25;10583710;28;3300;-78
2022/12/22 13:57:45;;;;;;;;;;;10.80;99.90;;;9.66;100.00;95089.22;10585923;27;2919;-76
2022/12/22 14:02:48;;;;;;;;;;;10.80;99.90;;;9.74;100.00;95084.03;10572499;27;2828;-76
2022/12/22 14:07:51;;;;;;;;;;;10.80;99.90;;;9.85;100.00;95070.50;10560031;27;2916;-78
2022/12/22 14:12:54;;;;;;;;;;;10.90;99.90;;;9.87;100.00;95084.44;10580655;27;2852;-78
2022/12/22 14:17:59;;;;;;;;;;;10.90;99.90;;;9.94;100.00;95091.06;10584999;27;2431;-78
2022/12/22 14:23:10;;;;;;;;;;;10.90;99.90;;;9.93;100.00;95077.94;10583201;27;2362;-79
2022/12/22 14:28:13;;;;;;;;;;;11.00;99.90;;;10.03;100.00;95099.28;10592061;27;4969;-78
2022/12/22 14:33:16;;;;;;;;;;;;;;;10.08;100.00;95107.28;10605392;27;1902;-76
2022/12/22 14:38:26;;;;;;;;;;;;;;;10.02;100.00;95117.28;10565264;27;3004;-75
2022/12/22 14:43:30;;;;;;;;;;;;;;;9.99;100.00;95120.56;10590545;27;2403;-76
2022/12/22 14:48:43;;;;;;;;;;;;;;;9.83;100.00;95132.53;10582118;27;2881;-77
2022/12/22 14:53:57;;;;;;;;;;;;;;;9.87;100.00;95105.94;10573991;27;2933;-77
2022/12/22 14:59:01;;;;;;;;;;;10.80;99.90;;;9.88;100.00;95129.78;10573604;27;2422;-75
2022/12/22 15:04:11;;;;;;;;;;;10.80;99.90;;;9.86;100.00;95133.81;10562880;27;2901;-75
2022/12/22 15:09:22;;;;;;;;;;;10.80;99.90;;;9.81;100.00;95140.06;10582146;27;2853;-78
2022/12/22 15:14:55;;;;;;;;;;;10.80;99.90;;;9.68;100.00;95157.63;10559422;27;2809;-76
2022/12/22 15:20:13;;;;;;;;;;;10.70;99.90;;;9.73;100.00;95160.28;10575532;27;2441;-77
2022/12/22 15:25:24;;;;;;;;;;;10.70;99.90;;;9.71;100.00;95158.94;10590603;27;2897;-76
2022/12/22 15:30:31;;;;;;;;;;;10.70;99.90;;;9.77;100.00;95181.16;10555453;27;4962;-77
2022/12/22 15:35:38;;;;;;;;;;;10.70;99.90;;;9.59;100.00;95183.47;10568383;27;2833;-78
2022/12/22 15:40:44;;;;;;;;;;;10.70;99.90;;;9.65;100.00;95185.03;10548357;28;2891;-77
2022/12/22 15:45:48;;;;;;;;;;;10.60;99.90;;;9.71;100.00;95162.44;10561047;27;2451;-77
2022/12/22 15:50:57;;;;;;;;;;;10.70;99.90;;;9.82;100.00;95183.81;10569320;27;2872;-77
2022/12/22 15:56:01;;;;;;;;;;;10.70;99.90;;;9.66;100.00;95191.97;10553917;28;2978;-77
2022/12/22 16:01:12;;;;;;;;;;;10.70;99.90;;;9.70;100.00;95182.28;10548469;28;2419;-77
2022/12/22 16:06:16;;;;;;;;;;;10.70;99.90;;;9.61;100.00;95191.25;10587236;27;2867;-78
2022/12/22 16:11:23;;;;;;;;;;;10.60;99.90;;;9.65;100.00;95185.03;10582287;27;2883;-77
2022/12/22 16:16:26;;;;;;;;;;;10.60;99.90;;;9.61;100.00;95184.00;10546594;27;2902;-77
2022/12/22 16:21:32;;;;;;;;;;;10.60;99.90;;;9.57;100.00;95190.19;10539191;28;2907;-77
2022/12/22 16:26:37;;;;;;;;;;;10.60;99.90;;;9.61;100.00;95197.41;10559021;27;5088;-76
2022/12/22 16:31:41;;;;;;;;;;;10.50;99.90;;;9.55;100.00;95195.84;10563046;28;2905;-79
2022/12/22 16:36:44;;;;;;;;;;;10.50;99.90;;;9.54;100.00;95183.50;10570331;28;2906;-78
2022/12/22 16:41:49;;;;;;;;;;;10.50;99.90;;;9.46;100.00;95192.16;10567984;28;2996;-77
2022/12/22 16:47:02;;;;;;;;;;;10.40;99.90;;;9.53;100.00;95197.19;10564248;28;2450;-77
2022/12/22 16:52:08;;;;;;;;;;;10.50;99.90;;;9.46;100.00;95197.53;10553278;28;2465;-74
2022/12/22 16:57:12;;;;;;;;;;;10.40;99.90;;;9.40;100.00;95215.53;10558682;28;2927;-78
2022/12/22 17:02:15;;;;;;;;;;;10.40;99.90;;;9.35;100.00;95206.72;10571522;28;3077;-76
2022/12/22 17:07:23;;;;;;;;;;;10.40;99.90;;;9.29;100.00;95216.72;10569690;28;2928;-77
2022/12/22 17:12:31;;;;;;;;;;;10.30;99.90;;;9.25;100.00;95229.06;10561250;28;2946;-77
2022/12/22 17:17:40;;;;;;;;;;;10.20;99.90;;;9.28;100.00;95220.44;10527303;28;2949;-77
2022/12/22 17:22:45;;;;;;;;;;;10.30;99.90;;;9.34;100.00;95202.44;10560460;28;1961;-77
2022/12/22 17:27:54;;;;;;;;;;;10.30;99.90;;;9.35;100.00;95237.06;10577164;28;5104;-76
2022/12/22 17:32:58;;;;;;;;;;;10.30;99.90;;;9.33;100.00;95231.16;10566658;28;1955;-76
2022/12/22 17:38:12;;;;;;;;;;;10.30;99.90;;;9.39;100.00;95239.97;10580867;27;1902;-76
2022/12/22 17:43:18;;;;;;;;;;;10.30;99.90;;;9.34;100.00;95238.09;10573035;27;1993;-77
2022/12/22 17:48:28;;;;;;;;;;;10.30;99.90;;;9.28;100.00;95244.59;10575849;27;2065;-78
2022/12/22 17:53:33;;;;;;;;;;;10.30;99.90;;;9.21;100.00;95242.22;10577274;27;1834;-76
2022/12/22 17:58:43;;;;;;;;;;;10.20;99.90;;;9.23;100.00;95236.59;10590762;27;1990;-76
2022/12/22 18:03:47;;;;;;;;;;;10.20;99.90;;;9.20;100.00;95235.25;10569042;27;1986;-77
2022/12/22 18:08:56;;;;;;;;;;;10.20;99.90;;;9.12;100.00;95235.84;10577486;27;2075;-75
2022/12/22 18:14:01;;;;;;;;;;;10.20;99.90;;;9.03;100.00;95226.75;10580429;27;1887;-75
2022/12/22 18:19:09;;;;;;;;;;;10.00;99.90;;;8.93;100.00;95218.78;10565971;27;1953;-75
2022/12/22 18:24:17;;;;;;;;;;;10.00;99.90;;;8.86;100.00;95216.41;10563658;27;1978;-75
2022/12/22 18:29:34;;;;;;;;;;;9.90;99.90;;;8.72;100.00;95214.63;10571781;27;5041;-78
2022/12/22 18:34:38;;;;;;;;;;;9.80;99.90;;;8.73;100.00;95210.88;10582477;27;1901;-78
2022/12/22 18:39:53;;;;;;;;;;;9.70;99.90;;;8.71;100.00;95210.31;10552498;27;2012;-76
2022/12/22 18:45:06;;;;;;;;;;;9.70;99.90;;;8.59;100.00;95211.47;10574991;27;1990;-77
2022/12/22 18:50:09;;;;;;;;;;;9.70;99.90;;;8.60;100.00;95212.25;10572687;27;1858;-77
2022/12/22 18:55:14;;;;;;;;;;;9.70;99.90;;;8.47;100.00;95208.28;10550821;27;2214;-77
2022/12/22 19:00:21;;;;;;;;;;;9.60;99.90;;;8.27;100.00;95202.94;10569083;27;1890;-76
2022/12/22 19:05:24;;;;;;;;;;;9.50;99.90;;;8.16;100.00;95191.50;10576681;27;1763;-75
2022/12/22 19:10:29;;;;;;;;;;;9.40;99.90;;;8.05;100.00;95181.88;10549161;27;1950;-75
2022/12/22 19:15:34;;;;;;;;;;;;;;;8.05;100.00;95184.53;10572420;27;2093;-77
2022/12/22 19:20:42;;;;;;;;;;;;;;;8.04;100.00;95182.94;10564303;27;2009;-76
2022/12/22 19:25:56;;;;;;;;;;;;;;;8.03;100.00;95176.81;10575493;27;1886;-78
2022/12/22 19:31:01;;;;;;;;;;;;;;;8.05;100.00;95169.28;10570352;27;1922;-77
2022/12/22 19:36:11;;;;;;;;;;;;;;;8.01;100.00;95170.09;10586376;27;1961;-75
2022/12/22 19:41:17;;;;;;;;;;;;;;;7.96;100.00;95170.94;10570863;27;1917;-76
2022/12/22 19:46:22;;;;;;;;;;;;;;;7.92;100.00;95166.38;10574331;27;1992;-77
2022/12/22 19:51:31;;;;;;;;;;;;;;;7.91;100.00;95157.56;10565969;27;2224;-76
2022/12/22 19:56:38;;;;;;;;;;;;;;;8.09;100.00;95148.94;10568323;27;1886;-77
2022/12/22 20:01:48;;;;;;;;;;;;;;;8.26;100.00;95145.13;10572082;27;2194;-77
2022/12/22 20:06:55;;;;;;;;;;;;;;;8.28;100.00;95135.75;10562371;27;1968;-77
2022/12/22 20:12:00;;;;;;;;;;;;;;;8.36;100.00;95142.44;10564814;27;1921;-76
2022/12/22 20:17:05;;;;;;;;;;;;;;;8.49;100.00;95138.38;10541835;28;1999;-77
2022/12/22 20:22:09;;;;;;;;;;;;;;;8.55;100.00;95131.91;10557338;28;2042;-76
2022/12/22 20:27:18;;;;;;;;;;;;;;;8.59;100.00;95125.72;10543424;28;5005;-76
2022/12/22 20:32:23;;;;;;;;;;;;;;;8.66;100.00;95114.72;10560878;28;1942;-76
2022/12/22 20:37:35;;;;;;;;;;;;;;;8.71;100.00;95105.81;10565541;28;2096;-77
2022/12/22 20:42:51;;;;;;;;;;;;;;;8.83;100.00;95100.91;10570378;28;1977;-75
2022/12/22 20:48:00;;;;;;;;;;;;;;;8.92;100.00;95096.56;10569464;28;2220;-77
2022/12/22 20:58:25;;;;;;;;;;;;;;;8.91;100.00;95094.97;10540544;28;2036;-76
2022/12/22 21:03:29;;;;;;;;;;;;;;;8.90;100.00;95085.31;10573068;28;1994;-77
2022/12/22 21:08:33;;;;;;;;;;;;;;;8.90;100.00;95088.78;10570126;28;2065;-76
2022/12/22 21:13:38;;;;;;;;;;;;;;;8.94;100.00;95079.13;10571617;28;1937;-75
2022/12/22 21:18:49;;;;;;;;;;;;;;;8.96;100.00;95086.88;10559153;27;1919;-79
2022/12/22 21:24:04;;;;;;;;;;;;;;;8.94;100.00;95078.31;10550659;28;2000;-76
2022/12/22 21:29:10;;;;;;;;;;;;;;;8.93;100.00;95082.88;10571135;27;5083;-76
2022/12/22 21:34:14;;;;;;;;;;;;;;;8.89;100.00;95081.03;10577644;27;1890;-76
2022/12/22 21:39:21;;;;;;;;;;;;;;;8.90;100.00;95071.91;10568318;27;1966;-77
2022/12/22 21:44:32;;;;;;;;;;;;;;;8.92;100.00;95078.63;10570783;27;2248;-75
2022/12/22 21:49:37;;;;;;;;;;;;;;;8.83;100.00;95066.88;10572441;27;1951;-76
2022/12/22 21:54:44;;;;;;;;;;;;;;;8.84;100.00;95063.13;10549567;27;2021;-76
2022/12/22 21:59:59;;;;;;;;;;;;;;;8.69;100.00;95060.56;10576752;27;2119;-77
2022/12/22 22:05:09;;;;;;;;;;;;;;;8.62;100.00;95060.88;10573992;27;1971;-77
2022/12/22 22:10:18;;;;;;;;;;;;;;;8.62;100.00;95047.47;10558814;27;2035;-77
2022/12/22 22:15:27;;;;;;;;;;;;;;;8.50;100.00;95036.28;10558135;27;1990;-76
2022/12/22 22:20:32;;;;;;;;;;;;;;;8.36;100.00;95028.09;10560968;27;1945;-75
2022/12/22 22:25:36;;;;;;;;;;;;;;;8.24;100.00;95022.25;10591815;27;2013;-76
2022/12/22 22:30:43;;;;;;;;;;;;;;;8.08;100.00;95008.16;10586245;27;4988;-78
2022/12/22 22:35:50;;;;;;;;;;;10.20;99.90;;;8.10;100.00;95005.19;10570554;27;1934;-76
2022/12/22 22:40:56;;;;;;;;;;;;;;;8.09;100.00;94993.69;10568196;27;2156;-76
2022/12/22 22:46:01;;;;;;;;;;;9.60;99.90;;;8.12;100.00;94979.75;10591455;27;1981;-76
2022/12/22 22:51:08;;;;;;;;;;;;;;;8.20;100.00;94974.88;10576938;27;2085;-78
2022/12/22 22:56:18;;;;;;;;;;;;;;;8.19;100.00;94965.25;10575894;27;1960;-78
2022/12/22 23:01:27;;;;;;;;;;;;;;;8.21;100.00;94958.56;10551222;27;1963;-77
2022/12/22 23:06:33;;;;;;;;;;;;;;;8.20;100.00;94956.13;10578148;27;1991;-76
2022/12/22 23:11:37;;;;;;;;;;;;;;;8.17;100.00;94941.44;10558393;27;2019;-74
2022/12/22 23:16:45;;;;;;;;;;;;;;;8.06;100.00;94934.53;10550699;28;1919;-75
2022/12/22 23:21:51;;;;;;;;;;;;;;;7.97;100.00;94930.88;10555335;27;2118;-76
2022/12/22 23:26:59;;;;;;;;;;;8.90;99.90;;;7.84;100.00;94924.25;10583657;27;5137;-77
2022/12/22 23:32:02;;;;;;;;;;;8.90;99.90;;;7.75;100.00;94917.88;10569089;27;1973;-77
2022/12/22 23:37:10;;;;;;;;;;;8.80;99.90;;;7.61;100.00;94944.44;10577051;27;2177;-76
2022/12/22 23:42:22;;;;;;;;;;;8.70;99.90;;;7.50;100.00;94938.31;10567644;28;1954;-77
2022/12/22 23:47:28;;;;;;;;;;;8.40;99.90;;;7.38;100.00;94932.50;10570001;27;1981;-77
2022/12/22 23:52:37;;;;;;;;;;;9.60;99.90;;;7.28;100.00;94933.34;10552221;27;1948;-76
2022/12/22 23:57:53;;;;;;;;;;;8.20;99.90;;;7.28;100.00;94956.59;10588080;27;1974;-77
